aviador You're here:

KM25 Decoded Metar

in
Report Time2017-11-23 14:35:00
UTC Time2017-11-23 14:36:37
Flight Rules vfr VFR
WindCalm
Visibility9999 m
Phenomena:N/A
Clouds:N/A
Expected CloudBase > 1,200 ft AGL from Temp-Dew spread
CeilingNone
Temp01°C
Dew Point-2°C (81% RH)
AAT-1.2°C
QNH1023 hPa
Raw Report
METAR KM25 231435Z AUTO 00000KT 10SM CLR 01/M02 A3020 RMK AO2=

Extra information for KM25:More info

Social comments